sensor_id;sensor_type;location;lat;lon;timestamp;pressure;altitude;pressure_sealevel;temperature;humidity
78354;BME280;67629;46.040;18.232;2024-02-23T00:00:11;98605.69;;;11.45;55.95
78354;BME280;67629;46.040;18.232;2024-02-23T00:00:42;98589.84;;;11.32;56.93
78354;BME280;67629;46.040;18.232;2024-02-23T00:01:13;98594.50;;;11.31;57.24
78354;BME280;67629;46.040;18.232;2024-02-23T00:01:44;98599.16;;;11.41;57.61
78354;BME280;67629;46.040;18.232;2024-02-23T00:02:15;98591.78;;;11.41;57.44
78354;BME280;67629;46.040;18.232;2024-02-23T00:02:46;98591.22;;;11.50;56.40
78354;BME280;67629;46.040;18.232;2024-02-23T00:03:16;98587.38;;;11.45;56.75
78354;BME280;67629;46.040;18.232;2024-02-23T00:03:47;98586.28;;;11.47;56.53
78354;BME280;67629;46.040;18.232;2024-02-23T00:04:18;98580.00;;;11.46;57.28
78354;BME280;67629;46.040;18.232;2024-02-23T00:04:51;98589.28;;;11.45;57.24
78354;BME280;67629;46.040;18.232;2024-02-23T00:06:57;98590.41;;;11.39;57.84
78354;BME280;67629;46.040;18.232;2024-02-23T00:07:28;98575.34;;;11.47;56.77
78354;BME280;67629;46.040;18.232;2024-02-23T00:07:58;98576.44;;;11.40;57.53
78354;BME280;67629;46.040;18.232;2024-02-23T00:08:29;98576.72;;;11.34;58.47
78354;BME280;67629;46.040;18.232;2024-02-23T00:09:00;98590.66;;;11.42;58.06
78354;BME280;67629;46.040;18.232;2024-02-23T00:09:30;98569.88;;;11.47;57.17
78354;BME280;67629;46.040;18.232;2024-02-23T00:10:01;98567.16;;;11.47;58.87
78354;BME280;67629;46.040;18.232;2024-02-23T00:10:32;98576.44;;;11.51;58.40
78354;BME280;67629;46.040;18.232;2024-02-23T00:11:03;98577.25;;;11.56;57.85
78354;BME280;67629;46.040;18.232;2024-02-23T00:11:34;98570.16;;;11.55;58.53
78354;BME280;67629;46.040;18.232;2024-02-23T00:12:09;98566.31;;;11.56;57.54
78354;BME280;67629;46.040;18.232;2024-02-23T00:12:41;98568.50;;;11.59;57.74
78354;BME280;67629;46.040;18.232;2024-02-23T00:13:11;98555.13;;;11.48;58.04
78354;BME280;67629;46.040;18.232;2024-02-23T00:14:22;98547.72;;;11.58;57.12
78354;BME280;67629;46.040;18.232;2024-02-23T00:14:53;98549.06;;;11.61;56.55
78354;BME280;67629;46.040;18.232;2024-02-23T00:16:12;98556.19;;;11.62;55.99
78354;BME280;67629;46.040;18.232;2024-02-23T00:16:43;98560.28;;;11.54;56.78
78354;BME280;67629;46.040;18.232;2024-02-23T00:17:13;98558.09;;;11.51;56.70
78354;BME280;67629;46.040;18.232;2024-02-23T00:17:44;98563.59;;;11.56;56.27
78354;BME280;67629;46.040;18.232;2024-02-23T00:18:15;98561.66;;;11.57;55.63
78354;BME280;67629;46.040;18.232;2024-02-23T00:18:47;98566.56;;;11.60;56.03
78354;BME280;67629;46.040;18.232;2024-02-23T00:19:17;98560.59;;;11.48;56.42
78354;BME280;67629;46.040;18.232;2024-02-23T00:19:49;98564.69;;;11.50;56.51
78354;BME280;67629;46.040;18.232;2024-02-23T00:20:23;98566.31;;;11.51;56.75
78354;BME280;67629;46.040;18.232;2024-02-23T00:20:53;98567.41;;;11.50;56.73
78354;BME280;67629;46.040;18.232;2024-02-23T00:21:24;98567.69;;;11.43;56.67
78354;BME280;67629;46.040;18.232;2024-02-23T00:21:55;98561.94;;;11.45;56.34
78354;BME280;67629;46.040;18.232;2024-02-23T00:22:25;98567.97;;;11.47;56.20
78354;BME280;67629;46.040;18.232;2024-02-23T00:22:56;98563.88;;;11.50;56.18
78354;BME280;67629;46.040;18.232;2024-02-23T00:23:27;98564.69;;;11.50;56.31
78354;BME280;67629;46.040;18.232;2024-02-23T00:23:59;98567.13;;;11.52;55.66
78354;BME280;67629;46.040;18.232;2024-02-23T00:24:29;98566.63;;;11.44;56.15
78354;BME280;67629;46.040;18.232;2024-02-23T00:25:00;98574.78;;;11.39;56.72
78354;BME280;67629;46.040;18.232;2024-02-23T00:26:39;98564.13;;;11.28;57.42
78354;BME280;67629;46.040;18.232;2024-02-23T00:27:10;98569.06;;;11.26;57.72
78354;BME280;67629;46.040;18.232;2024-02-23T00:27:40;98566.34;;;11.26;58.15
78354;BME280;67629;46.040;18.232;2024-02-23T00:28:12;98567.72;;;11.23;58.25
78354;BME280;67629;46.040;18.232;2024-02-23T00:28:43;98573.47;;;11.22;58.14
78354;BME280;67629;46.040;18.232;2024-02-23T00:29:13;98574.53;;;11.26;57.65
78354;BME280;67629;46.040;18.232;2024-02-23T00:29:44;98563.59;;;11.26;58.30
78354;BME280;67629;46.040;18.232;2024-02-23T00:30:15;98555.41;;;11.31;58.46
78354;BME280;67629;46.040;18.232;2024-02-23T00:30:46;98562.25;;;11.33;58.86
78354;BME280;67629;46.040;18.232;2024-02-23T00:31:16;98563.88;;;11.29;58.59
78354;BME280;67629;46.040;18.232;2024-02-23T00:31:47;98569.91;;;11.21;59.31
78354;BME280;67629;46.040;18.232;2024-02-23T00:32:18;98567.44;;;11.15;59.47
78354;BME280;67629;46.040;18.232;2024-02-23T00:32:48;98563.06;;;11.19;59.53
78354;BME280;67629;46.040;18.232;2024-02-23T00:33:19;98568.53;;;11.14;59.90
78354;BME280;67629;46.040;18.232;2024-02-23T00:33:50;98566.59;;;11.14;59.97
78354;BME280;67629;46.040;18.232;2024-02-23T00:34:20;98566.34;;;11.06;59.57
78354;BME280;67629;46.040;18.232;2024-02-23T00:34:52;98562.78;;;11.05;60.63
78354;BME280;67629;46.040;18.232;2024-02-23T00:35:23;98561.16;;;11.09;59.81
78354;BME280;67629;46.040;18.232;2024-02-23T00:35:53;98570.16;;;11.15;60.40
78354;BME280;67629;46.040;18.232;2024-02-23T00:41:47;98565.22;;;10.97;62.18
78354;BME280;67629;46.040;18.232;2024-02-23T00:42:17;98564.41;;;10.86;62.53
78354;BME280;67629;46.040;18.232;2024-02-23T00:43:26;98560.31;;;10.88;62.77
78354;BME280;67629;46.040;18.232;2024-02-23T00:43:59;98560.59;;;10.92;62.58
78354;BME280;67629;46.040;18.232;2024-02-23T00:44:30;98558.94;;;10.91;62.46
78354;BME280;67629;46.040;18.232;2024-02-23T00:45:01;98556.75;;;10.88;62.96
78354;BME280;67629;46.040;18.232;2024-02-23T00:45:32;98561.44;;;10.88;63.31
78354;BME280;67629;46.040;18.232;2024-02-23T00:46:03;98564.69;;;10.84;63.37
78354;BME280;67629;46.040;18.232;2024-02-23T00:46:34;98560.03;;;10.85;64.07
78354;BME280;67629;46.040;18.232;2024-02-23T00:47:05;98562.50;;;10.86;63.82
78354;BME280;67629;46.040;18.232;2024-02-23T00:47:36;98555.41;;;10.80;65.01
78354;BME280;67629;46.040;18.232;2024-02-23T00:48:08;98558.13;;;10.80;63.68
78354;BME280;67629;46.040;18.232;2024-02-23T00:48:39;98559.50;;;10.78;64.14
78354;BME280;67629;46.040;18.232;2024-02-23T00:49:09;98564.41;;;10.76;65.35
78354;BME280;67629;46.040;18.232;2024-02-23T00:49:40;98557.56;;;10.68;64.81
78354;BME280;67629;46.040;18.232;2024-02-23T00:50:11;98555.34;;;10.70;65.24
78354;BME280;67629;46.040;18.232;2024-02-23T00:50:42;98559.50;;;10.73;66.22
78354;BME280;67629;46.040;18.232;2024-02-23T00:51:12;98563.00;;;10.73;65.05
78354;BME280;67629;46.040;18.232;2024-02-23T00:51:43;98556.47;;;10.69;65.13
78354;BME280;67629;46.040;18.232;2024-02-23T00:53:09;98561.69;;;10.81;64.98
78354;BME280;67629;46.040;18.232;2024-02-23T00:53:40;98555.34;;;10.70;65.68
78354;BME280;67629;46.040;18.232;2024-02-23T00:54:11;98555.94;;;10.67;65.56
78354;BME280;67629;46.040;18.232;2024-02-23T00:54:42;98560.81;;;10.65;65.61
78354;BME280;67629;46.040;18.232;2024-02-23T00:55:12;98561.94;;;10.64;65.89
78354;BME280;67629;46.040;18.232;2024-02-23T00:55:43;98560.53;;;10.62;66.67
78354;BME280;67629;46.040;18.232;2024-02-23T00:56:14;98563.00;;;10.68;65.79
78354;BME280;67629;46.040;18.232;2024-02-23T00:56:44;98561.41;;;10.67;65.93
78354;BME280;67629;46.040;18.232;2024-02-23T00:57:15;98557.00;;;10.61;66.49
78354;BME280;67629;46.040;18.232;2024-02-23T00:57:46;98557.56;;;10.58;66.50
78354;BME280;67629;46.040;18.232;2024-02-23T00:58:17;98566.56;;;10.59;66.67
78354;BME280;67629;46.040;18.232;2024-02-23T00:58:48;98554.53;;;10.55;67.70
78354;BME280;67629;46.040;18.232;2024-02-23T00:59:18;98562.44;;;10.56;66.80
78354;BME280;67629;46.040;18.232;2024-02-23T00:59:49;98558.34;;;10.54;67.18
78354;BME280;67629;46.040;18.232;2024-02-23T01:00:20;98556.44;;;10.54;67.42
78354;BME280;67629;46.040;18.232;2024-02-23T01:00:51;98563.53;;;10.55;67.42
78354;BME280;67629;46.040;18.232;2024-02-23T01:01:22;98558.09;;;10.60;67.18
78354;BME280;67629;46.040;18.232;2024-02-23T01:01:52;98554.53;;;10.50;67.80
78354;BME280;67629;46.040;18.232;2024-02-23T01:02:23;98551.25;;;10.58;67.19
78354;BME280;67629;46.040;18.232;2024-02-23T01:02:54;98551.81;;;10.55;67.16
78354;BME280;67629;46.040;18.232;2024-02-23T01:03:24;98568.19;;;10.60;67.56
78354;BME280;67629;46.040;18.232;2024-02-23T01:03:55;98558.09;;;10.50;67.71
78354;BME280;67629;46.040;18.232;2024-02-23T01:04:26;98545.50;;;10.49;68.11
78354;BME280;67629;46.040;18.232;2024-02-23T01:04:56;98550.97;;;10.54;67.73
78354;BME280;67629;46.040;18.232;2024-02-23T01:05:29;98552.09;;;10.58;67.51
78354;BME280;67629;46.040;18.232;2024-02-23T01:05:59;98560.28;;;10.58;68.00
78354;BME280;67629;46.040;18.232;2024-02-23T01:06:30;98559.41;;;10.48;68.27
78354;BME280;67629;46.040;18.232;2024-02-23T01:07:01;98561.88;;;10.44;68.76
78354;BME280;67629;46.040;18.232;2024-02-23T01:07:32;98565.97;;;10.47;68.80
78354;BME280;67629;46.040;18.232;2024-02-23T01:08:02;98562.97;;;10.43;69.63
78354;BME280;67629;46.040;18.232;2024-02-23T01:08:33;98570.03;;;10.39;70.24
78354;BME280;67629;46.040;18.232;2024-02-23T01:12:37;98568.94;;;10.35;70.55
78354;BME280;67629;46.040;18.232;2024-02-23T01:13:07;98571.66;;;10.30;70.14
78354;BME280;67629;46.040;18.232;2024-02-23T01:13:38;98559.34;;;10.22;70.01
78354;BME280;67629;46.040;18.232;2024-02-23T01:14:09;98548.66;;;10.16;70.75
78354;BME280;67629;46.040;18.232;2024-02-23T01:14:40;98567.53;;;10.22;71.42
78354;BME280;67629;46.040;18.232;2024-02-23T01:15:10;98572.75;;;10.29;70.78
78354;BME280;67629;46.040;18.232;2024-02-23T01:15:42;98569.19;;;10.23;70.61
78354;BME280;67629;46.040;18.232;2024-02-23T01:16:12;98565.09;;;10.21;70.46
78354;BME280;67629;46.040;18.232;2024-02-23T01:16:43;98553.31;;;10.15;71.89
78354;BME280;67629;46.040;18.232;2024-02-23T01:17:14;98553.00;;;10.12;71.85
78354;BME280;67629;46.040;18.232;2024-02-23T01:17:48;98550.28;;;10.12;72.23
78354;BME280;67629;46.040;18.232;2024-02-23T01:18:19;98563.91;;;10.12;72.34
78354;BME280;67629;46.040;18.232;2024-02-23T01:18:50;98560.63;;;10.10;71.41
78354;BME280;67629;46.040;18.232;2024-02-23T01:19:20;98545.34;;;10.09;71.50
78354;BME280;67629;46.040;18.232;2024-02-23T01:19:51;98548.06;;;10.09;71.83
78354;BME280;67629;46.040;18.232;2024-02-23T01:20:22;98554.91;;;10.11;71.50
78354;BME280;67629;46.040;18.232;2024-02-23T01:20:53;98560.88;;;10.08;72.23
78354;BME280;67629;46.040;18.232;2024-02-23T01:21:24;98554.06;;;10.11;71.57
78354;BME280;67629;46.040;18.232;2024-02-23T01:21:54;98553.81;;;10.12;71.90
78354;BME280;67629;46.040;18.232;2024-02-23T01:23:25;98551.97;;;10.13;72.91
78354;BME280;67629;46.040;18.232;2024-02-23T01:23:57;98546.19;;;10.09;73.32
78354;BME280;67629;46.040;18.232;2024-02-23T01:24:28;98554.06;;;10.06;73.82
78354;BME280;67629;46.040;18.232;2024-02-23T01:24:59;98542.34;;;10.10;72.96
78354;BME280;67629;46.040;18.232;2024-02-23T01:25:30;98550.03;;;10.13;73.05
78354;BME280;67629;46.040;18.232;2024-02-23T01:26:01;98555.22;;;10.15;73.68
78354;BME280;67629;46.040;18.232;2024-02-23T01:26:32;98548.41;;;10.17;73.17
78354;BME280;67629;46.040;18.232;2024-02-23T01:27:03;98555.00;;;10.21;72.98
78354;BME280;67629;46.040;18.232;2024-02-23T01:27:34;98551.97;;;10.23;72.59
78354;BME280;67629;46.040;18.232;2024-02-23T01:28:05;98545.69;;;10.17;72.89
78354;BME280;67629;46.040;18.232;2024-02-23T01:28:35;98547.88;;;10.15;72.64
78354;BME280;67629;46.040;18.232;2024-02-23T01:29:06;98549.50;;;10.16;73.45
78354;BME280;67629;46.040;18.232;2024-02-23T01:29:37;98544.03;;;10.16;73.54
78354;BME280;67629;46.040;18.232;2024-02-23T01:30:08;98541.88;;;10.18;73.67
78354;BME280;67629;46.040;18.232;2024-02-23T01:30:38;98537.78;;;10.21;72.94
78354;BME280;67629;46.040;18.232;2024-02-23T01:31:10;98546.81;;;10.21;73.54
78354;BME280;67629;46.040;18.232;2024-02-23T01:31:41;98547.59;;;10.22;74.75
78354;BME280;67629;46.040;18.232;2024-02-23T01:32:12;98548.72;;;10.21;74.24
78354;BME280;67629;46.040;18.232;2024-02-23T01:32:43;98541.88;;;10.18;75.11
78354;BME280;67629;46.040;18.232;2024-02-23T01:33:13;98548.97;;;10.19;74.95
78354;BME280;67629;46.040;18.232;2024-02-23T01:33:44;98552.78;;;10.18;74.16
78354;BME280;67629;46.040;18.232;2024-02-23T01:34:15;98548.97;;;10.19;74.50
78354;BME280;67629;46.040;18.232;2024-02-23T01:34:46;98544.84;;;10.17;74.41
78354;BME280;67629;46.040;18.232;2024-02-23T01:35:16;98540.47;;;10.16;74.49
78354;BME280;67629;46.040;18.232;2024-02-23T01:35:47;98538.88;;;10.20;74.33
78354;BME280;67629;46.040;18.232;2024-02-23T01:36:18;98545.69;;;10.17;74.62
78354;BME280;67629;46.040;18.232;2024-02-23T01:36:49;98536.13;;;10.20;74.19
78354;BME280;67629;46.040;18.232;2024-02-23T01:37:19;98541.59;;;10.20;74.82
78354;BME280;67629;46.040;18.232;2024-02-23T01:37:50;98535.50;;;10.08;76.00
78354;BME280;67629;46.040;18.232;2024-02-23T01:38:21;98540.75;;;10.14;75.63
78354;BME280;67629;46.040;18.232;2024-02-23T01:38:52;98538.03;;;10.14;75.24
78354;BME280;67629;46.040;18.232;2024-02-23T01:39:23;98543.22;;;10.16;74.66
78354;BME280;67629;46.040;18.232;2024-02-23T01:39:54;98541.88;;;10.18;75.07
78354;BME280;67629;46.040;18.232;2024-02-23T01:40:24;98545.13;;;10.15;75.54
78354;BME280;67629;46.040;18.232;2024-02-23T01:40:55;98542.66;;;10.14;75.35
78354;BME280;67629;46.040;18.232;2024-02-23T01:41:26;98541.78;;;10.08;75.78
78354;BME280;67629;46.040;18.232;2024-02-23T01:41:56;98541.78;;;10.08;75.51
78354;BME280;67629;46.040;18.232;2024-02-23T01:42:27;98546.69;;;10.01;76.49
78354;BME280;67629;46.040;18.232;2024-02-23T01:43:04;98542.84;;;10.02;76.42
78354;BME280;67629;46.040;18.232;2024-02-23T01:43:35;98544.75;;;10.02;76.97
78354;BME280;67629;46.040;18.232;2024-02-23T01:44:06;98541.78;;;10.03;76.92
78354;BME280;67629;46.040;18.232;2024-02-23T01:44:37;98541.50;;;10.00;76.98
78354;BME280;67629;46.040;18.232;2024-02-23T01:45:08;98540.66;;;9.99;77.80
78354;BME280;67629;46.040;18.232;2024-02-23T01:45:38;98543.13;;;10.01;77.41
78354;BME280;67629;46.040;18.232;2024-02-23T01:46:09;98540.97;;;10.03;77.83
78354;BME280;67629;46.040;18.232;2024-02-23T01:46:40;98548.59;;;9.96;77.87
78354;BME280;67629;46.040;18.232;2024-02-23T01:47:25;98542.84;;;9.97;77.59
78354;BME280;67629;46.040;18.232;2024-02-23T01:47:58;98542.03;;;10.02;77.58
78354;BME280;67629;46.040;18.232;2024-02-23T01:48:29;98541.19;;;9.96;77.52
78354;BME280;67629;46.040;18.232;2024-02-23T01:49:00;98539.81;;;9.94;77.55
78354;BME280;67629;46.040;18.232;2024-02-23T01:49:32;98536.25;;;9.88;78.22
78354;BME280;67629;46.040;18.232;2024-02-23T01:50:05;98544.72;;;9.92;78.50
78354;BME280;67629;46.040;18.232;2024-02-23T01:50:39;98543.34;;;9.89;78.58
78354;BME280;67629;46.040;18.232;2024-02-23T01:51:11;98539.25;;;9.87;78.49
78354;BME280;67629;46.040;18.232;2024-02-23T01:51:43;98539.78;;;9.84;78.11
78354;BME280;67629;46.040;18.232;2024-02-23T01:52:13;98541.69;;;9.83;78.95
78354;BME280;67629;46.040;18.232;2024-02-23T01:52:45;98534.59;;;9.82;78.24
78354;BME280;67629;46.040;18.232;2024-02-23T01:53:17;98536.22;;;9.78;79.38
78354;BME280;67629;46.040;18.232;2024-02-23T01:53:50;98542.50;;;9.84;79.28
78354;BME280;67629;46.040;18.232;2024-02-23T01:54:21;98540.88;;;9.83;79.25
78354;BME280;67629;46.040;18.232;2024-02-23T01:54:53;98547.38;;;9.77;79.28
78354;BME280;67629;46.040;18.232;2024-02-23T01:55:25;98540.03;;;9.82;79.51
78354;BME280;67629;46.040;18.232;2024-02-23T01:55:57;98542.44;;;9.73;78.82
78354;BME280;67629;46.040;18.232;2024-02-23T01:56:30;98531.28;;;9.75;78.97
78354;BME280;67629;46.040;18.232;2024-02-23T01:57:02;98535.38;;;9.72;78.10
78354;BME280;67629;46.040;18.232;2024-02-23T01:57:32;98542.16;;;9.70;78.16
78354;BME280;67629;46.040;18.232;2024-02-23T01:58:04;98546.00;;;9.74;78.76
78354;BME280;67629;46.040;18.232;2024-02-23T01:58:37;98547.91;;;9.73;78.88
78354;BME280;67629;46.040;18.232;2024-02-23T01:59:10;98543.28;;;9.79;78.63
78354;BME280;67629;46.040;18.232;2024-02-23T01:59:42;98536.75;;;9.75;78.36
78354;BME280;67629;46.040;18.232;2024-02-23T02:00:18;98536.75;;;9.75;78.00
78354;BME280;67629;46.040;18.232;2024-02-23T02:00:49;98544.63;;;9.71;79.20
78354;BME280;67629;46.040;18.232;2024-02-23T02:01:20;98539.16;;;9.66;78.72
78354;BME280;67629;46.040;18.232;2024-02-23T02:01:51;98543.25;;;9.69;78.88
78354;BME280;67629;46.040;18.232;2024-02-23T02:07:23;98545.72;;;9.70;78.38
78354;BME280;67629;46.040;18.232;2024-02-23T02:07:56;98541.59;;;9.68;78.47
78354;BME280;67629;46.040;18.232;2024-02-23T02:08:29;98548.47;;;9.76;78.52
78354;BME280;67629;46.040;18.232;2024-02-23T02:09:01;98546.53;;;9.71;78.15
78354;BME280;67629;46.040;18.232;2024-02-23T02:09:32;98550.38;;;9.75;77.84
78354;BME280;67629;46.040;18.232;2024-02-23T02:10:05;98539.47;;;9.75;78.83
78354;BME280;67629;46.040;18.232;2024-02-23T02:10:37;98544.84;;;9.65;78.68
78354;BME280;67629;46.040;18.232;2024-02-23T02:11:07;98544.31;;;9.63;78.70
78354;BME280;67629;46.040;18.232;2024-02-23T02:11:48;98540.50;;;9.64;78.46
78354;BME280;67629;46.040;18.232;2024-02-23T02:12:28;98536.09;;;9.58;79.44
78354;BME280;67629;46.040;18.232;2024-02-23T02:13:05;98539.38;;;9.60;79.65
78354;BME280;67629;46.040;18.232;2024-02-23T02:13:37;98546.50;;;9.66;78.81
78354;BME280;67629;46.040;18.232;2024-02-23T02:14:08;98534.75;;;9.60;79.50
78354;BME280;67629;46.040;18.232;2024-02-23T02:14:41;98550.59;;;9.63;79.10
78354;BME280;67629;46.040;18.232;2024-02-23T02:15:11;98550.59;;;9.63;79.14
78354;BME280;67629;46.040;18.232;2024-02-23T02:15:42;98545.44;;;9.67;79.30
78354;BME280;67629;46.040;18.232;2024-02-23T02:16:14;98544.59;;;9.66;78.68
78354;BME280;67629;46.040;18.232;2024-02-23T02:16:45;98539.97;;;9.67;79.78
78354;BME280;67629;46.040;18.232;2024-02-23T02:19:37;98544.66;;;9.77;78.12
78354;BME280;67629;46.040;18.232;2024-02-23T02:20:11;98543.03;;;9.81;78.92
78354;BME280;67629;46.040;18.232;2024-02-23T02:20:51;98545.75;;;9.76;79.82
78354;BME280;67629;46.040;18.232;2024-02-23T02:21:23;98537.00;;;9.79;79.05
78354;BME280;67629;46.040;18.232;2024-02-23T02:21:56;98548.19;;;9.77;79.48
78354;BME280;67629;46.040;18.232;2024-02-23T02:22:27;98545.78;;;9.81;78.88
78354;BME280;67629;46.040;18.232;2024-02-23T02:22:57;98543.59;;;9.83;79.33
78354;BME280;67629;46.040;18.232;2024-02-23T02:23:28;98539.50;;;9.80;79.77
78354;BME280;67629;46.040;18.232;2024-02-23T02:23:59;98541.66;;;9.78;80.50
78354;BME280;67629;46.040;18.232;2024-02-23T02:24:29;98528.53;;;9.70;79.99
78354;BME280;67629;46.040;18.232;2024-02-23T02:25:00;98537.81;;;9.69;79.94
78354;BME280;67629;46.040;18.232;2024-02-23T02:25:31;98538.31;;;9.61;80.96
78354;BME280;67629;46.040;18.232;2024-02-23T02:26:02;98545.13;;;9.63;81.45
78354;BME280;67629;46.040;18.232;2024-02-23T02:26:32;98544.00;;;9.59;81.88
78354;BME280;67629;46.040;18.232;2024-02-23T02:27:03;98544.81;;;9.55;82.12
78354;BME280;67629;46.040;18.232;2024-02-23T02:27:34;98549.16;;;9.56;82.52
78354;BME280;67629;46.040;18.232;2024-02-23T02:28:06;98549.97;;;9.51;83.00
78354;BME280;67629;46.040;18.232;2024-02-23T02:28:38;98560.03;;;9.51;83.27
78354;BME280;67629;46.040;18.232;2024-02-23T02:29:09;98559.50;;;9.54;82.89
78354;BME280;67629;46.040;18.232;2024-02-23T02:29:40;98557.09;;;9.57;83.12
78354;BME280;67629;46.040;18.232;2024-02-23T02:30:13;98550.78;;;9.52;83.38
78354;BME280;67629;46.040;18.232;2024-02-23T02:30:44;98555.19;;;9.58;83.48
78354;BME280;67629;46.040;18.232;2024-02-23T02:31:14;98555.94;;;9.48;83.82
78354;BME280;67629;46.040;18.232;2024-02-23T02:31:45;98560.59;;;9.53;83.98
78354;BME280;67629;46.040;18.232;2024-02-23T02:32:16;98550.50;;;9.53;83.93
78354;BME280;67629;46.040;18.232;2024-02-23T02:32:47;98555.97;;;9.53;83.98
78354;BME280;67629;46.040;18.232;2024-02-23T02:33:18;98549.13;;;9.51;84.34
78354;BME280;67629;46.040;18.232;2024-02-23T02:33:48;98562.75;;;9.51;84.90
78354;BME280;67629;46.040;18.232;2024-02-23T02:34:19;98551.03;;;9.50;84.94
78354;BME280;67629;46.040;18.232;2024-02-23T02:34:50;98550.25;;;9.50;85.19
78354;BME280;67629;46.040;18.232;2024-02-23T02:35:20;98553.75;;;9.50;84.26
78354;BME280;67629;46.040;18.232;2024-02-23T02:35:51;98553.50;;;9.47;85.03
78354;BME280;67629;46.040;18.232;2024-02-23T02:36:37;98552.34;;;9.43;85.26
78354;BME280;67629;46.040;18.232;2024-02-23T02:37:08;98548.81;;;9.42;85.67
78354;BME280;67629;46.040;18.232;2024-02-23T02:37:54;98541.16;;;9.39;85.66
78354;BME280;67629;46.040;18.232;2024-02-23T02:38:40;98549.34;;;9.39;86.53
78354;BME280;67629;46.040;18.232;2024-02-23T02:39:26;98554.22;;;9.32;87.31
78354;BME280;67629;46.040;18.232;2024-02-23T02:39:57;98554.22;;;9.37;86.93
78354;BME280;67629;46.040;18.232;2024-02-23T02:40:43;98548.25;;;9.40;86.35
78354;BME280;67629;46.040;18.232;2024-02-23T02:41:29;98547.09;;;9.31;86.06
78354;BME280;67629;46.040;18.232;2024-02-23T02:42:16;98545.44;;;9.30;86.63
78354;BME280;67629;46.040;18.232;2024-02-23T02:43:02;98549.00;;;9.31;86.49
78354;BME280;67629;46.040;18.232;2024-02-23T02:43:48;98544.06;;;9.28;86.41
78354;BME280;67629;46.040;18.232;2024-02-23T02:44:34;98541.66;;;9.31;87.25
78354;BME280;67629;46.040;18.232;2024-02-23T02:45:20;98547.63;;;9.28;87.15
78354;BME280;67629;46.040;18.232;2024-02-23T02:46:06;98549.50;;;9.23;87.62
78354;BME280;67629;46.040;18.232;2024-02-23T02:46:52;98547.06;;;9.26;86.74
78354;BME280;67629;46.040;18.232;2024-02-23T02:47:38;98544.66;;;9.30;86.42
78354;BME280;67629;46.040;18.232;2024-02-23T02:48:24;98551.72;;;9.31;86.76
78354;BME280;67629;46.040;18.232;2024-02-23T02:48:54;98554.72;;;9.29;87.50
78354;BME280;67629;46.040;18.232;2024-02-23T02:49:25;98553.63;;;9.30;87.07
78354;BME280;67629;46.040;18.232;2024-02-23T02:50:11;98558.81;;;9.27;87.58
78354;BME280;67629;46.040;18.232;2024-02-23T02:50:56;98550.34;;;9.28;86.77
78354;BME280;67629;46.040;18.232;2024-02-23T02:51:42;98546.28;;;9.31;86.64
78354;BME280;67629;46.040;18.232;2024-02-23T02:52:28;98547.94;;;9.32;86.92
78354;BME280;67629;46.040;18.232;2024-02-23T02:53:14;98546.31;;;9.36;86.88
78354;BME280;67629;46.040;18.232;2024-02-23T02:53:44;98546.06;;;9.37;86.55
78354;BME280;67629;46.040;18.232;2024-02-23T02:54:15;98540.59;;;9.37;86.76
78354;BME280;67629;46.040;18.232;2024-02-23T02:55:02;98541.72;;;9.41;86.57
78354;BME280;67629;46.040;18.232;2024-02-23T02:55:32;98541.72;;;9.41;87.33
78354;BME280;67629;46.040;18.232;2024-02-23T02:56:18;98538.97;;;9.36;87.16
78354;BME280;67629;46.040;18.232;2024-02-23T02:56:49;98538.13;;;9.36;87.12
78354;BME280;67629;46.040;18.232;2024-02-23T02:57:21;98546.56;;;9.34;87.55
78354;BME280;67629;46.040;18.232;2024-02-23T02:58:06;98540.34;;;9.39;87.57
78354;BME280;67629;46.040;18.232;2024-02-23T02:58:38;98535.41;;;9.36;88.16
78354;BME280;67629;46.040;18.232;2024-02-23T02:59:24;98535.16;;;9.37;88.02
78354;BME280;67629;46.040;18.232;2024-02-23T03:00:10;98541.97;;;9.40;88.77
78354;BME280;67629;46.040;18.232;2024-02-23T03:00:56;98540.09;;;9.40;88.73
78354;BME280;67629;46.040;18.232;2024-02-23T03:01:42;98539.78;;;9.37;88.82
78354;BME280;67629;46.040;18.232;2024-02-23T03:02:28;98529.72;;;9.37;89.24
78354;BME280;67629;46.040;18.232;2024-02-23T03:02:58;98531.88;;;9.35;89.32
78354;BME280;67629;46.040;18.232;2024-02-23T03:03:29;98539.47;;;9.33;89.81
78354;BME280;67629;46.040;18.232;2024-02-23T03:04:00;98538.41;;;9.34;89.68
78354;BME280;67629;46.040;18.232;2024-02-23T03:04:30;98531.81;;;9.30;89.95
78354;BME280;67629;46.040;18.232;2024-02-23T03:05:01;98534.00;;;9.28;89.49
78354;BME280;67629;46.040;18.232;2024-02-23T03:05:32;98537.56;;;9.34;90.23
78354;BME280;67629;46.040;18.232;2024-02-23T03:06:02;98534.56;;;9.30;91.15
78354;BME280;67629;46.040;18.232;2024-02-23T03:06:36;98536.22;;;9.36;89.73
78354;BME280;67629;46.040;18.232;2024-02-23T03:07:07;98530.53;;;9.38;89.86
78354;BME280;67629;46.040;18.232;2024-02-23T03:07:37;98537.06;;;9.37;90.57
78354;BME280;67629;46.040;18.232;2024-02-23T03:08:08;98535.16;;;9.37;90.43
78354;BME280;67629;46.040;18.232;2024-02-23T03:08:42;98539.22;;;9.35;91.16
78354;BME280;67629;46.040;18.232;2024-02-23T03:09:12;98537.06;;;9.37;91.05
78354;BME280;67629;46.040;18.232;2024-02-23T03:09:43;98543.06;;;9.39;90.36
78354;BME280;67629;46.040;18.232;2024-02-23T03:10:14;98530.81;;;9.41;90.41
78354;BME280;67629;46.040;18.232;2024-02-23T03:10:44;98532.16;;;9.39;91.01
78354;BME280;67629;46.040;18.232;2024-02-23T03:11:15;98525.91;;;9.38;91.73
78354;BME280;67629;46.040;18.232;2024-02-23T03:11:46;98527.53;;;9.39;91.84
78354;BME280;67629;46.040;18.232;2024-02-23T03:12:17;98531.59;;;9.37;91.76
78354;BME280;67629;46.040;18.232;2024-02-23T03:12:48;98523.13;;;9.33;91.97
78354;BME280;67629;46.040;18.232;2024-02-23T03:13:18;98519.63;;;9.38;91.58
78354;BME280;67629;46.040;18.232;2024-02-23T03:13:49;98520.38;;;9.28;91.80
78354;BME280;67629;46.040;18.232;2024-02-23T03:14:19;98506.50;;;9.30;91.44